createdAt,value
2022-10-11T00:01:16.436Z,101497.75
2022-10-11T00:03:43.258Z,101500.34
2022-10-11T00:06:10.056Z,101488.34
2022-10-11T00:08:36.892Z,101488.09
2022-10-11T00:11:03.651Z,101497.84
2022-10-11T00:13:30.430Z,101499.19
2022-10-11T00:15:57.173Z,101506.81
2022-10-11T00:18:23.980Z,101505.59
2022-10-11T00:20:50.726Z,101510.03
2022-10-11T00:23:17.482Z,101518.94
2022-10-11T00:25:44.258Z,101515.75
2022-10-11T00:28:11.051Z,101524.88
2022-10-11T00:30:37.838Z,101523.44
2022-10-11T00:33:04.816Z,101524.91
2022-10-11T00:35:31.566Z,101526.22
2022-10-11T00:37:58.354Z,101531.72
2022-10-11T00:40:25.424Z,101536.72
2022-10-11T00:42:52.219Z,101531.47
2022-10-11T00:45:18.983Z,101533.75
2022-10-11T00:47:45.741Z,101543.31
2022-10-11T00:50:12.488Z,101533.63
2022-10-11T00:52:39.243Z,101543.56
2022-10-11T00:55:06.048Z,101542.59
2022-10-11T00:57:32.866Z,101533.72
2022-10-11T00:59:59.664Z,101536.50
2022-10-11T01:02:26.437Z,101543.91
2022-10-11T01:05:11.284Z,101549.00
2022-10-11T01:07:39.943Z,101550.88
2022-10-11T01:10:06.734Z,101544.63
2022-10-11T01:12:33.483Z,101552.09
2022-10-11T01:15:00.253Z,101548.44
2022-10-11T01:17:27.028Z,101553.69
2022-10-11T01:19:53.842Z,101558.38
2022-10-11T01:22:20.613Z,101565.63
2022-10-11T01:24:47.352Z,101554.00
2022-10-11T01:27:14.094Z,101568.91
2022-10-11T01:29:40.848Z,101575.31
2022-10-11T01:32:07.599Z,101569.81
2022-10-11T01:34:34.352Z,101584.22
2022-10-11T01:37:01.235Z,101586.41
2022-10-11T01:39:27.972Z,101591.94
2022-10-11T01:41:54.770Z,101583.91
2022-10-11T01:44:21.565Z,101590.91
2022-10-11T01:46:48.304Z,101593.25
2022-10-11T01:49:15.045Z,101593.66
2022-10-11T01:51:46.315Z,101596.53
2022-10-11T01:54:14.096Z,101592.31
2022-10-11T01:56:40.984Z,101598.75
2022-10-11T01:59:07.747Z,101596.63
2022-10-11T02:01:34.555Z,101601.47
2022-10-11T02:04:01.356Z,101600.25
2022-10-11T02:06:28.119Z,101599.50
2022-10-11T02:08:54.861Z,101597.22
2022-10-11T02:11:21.667Z,101597.66
2022-10-11T02:13:48.427Z,101600.28
2022-10-11T02:16:15.178Z,101603.66
2022-10-11T02:18:41.936Z,101601.00
2022-10-11T02:21:08.719Z,101608.03
2022-10-11T02:23:36.186Z,101610.56
2022-10-11T02:26:03.309Z,101606.34
2022-10-11T02:28:30.385Z,101609.53
2022-10-11T02:30:57.228Z,101613.13
2022-10-11T02:33:23.992Z,101605.53
2022-10-11T02:35:50.829Z,101598.44
2022-10-11T02:38:17.748Z,101603.78
2022-10-11T02:40:44.829Z,101598.13
2022-10-11T02:43:11.586Z,101615.16
2022-10-11T02:45:38.388Z,101607.50
2022-10-11T02:48:05.184Z,101610.84
2022-10-11T02:50:31.958Z,101613.97
2022-10-11T02:52:58.724Z,101623.53
2022-10-11T02:55:25.473Z,101625.19
2022-10-11T02:57:52.243Z,101632.09
2022-10-11T03:00:18.977Z,101628.34
2022-10-11T03:02:45.720Z,101633.00
2022-10-11T03:05:12.497Z,101636.81
2022-10-11T03:07:39.256Z,101634.69
2022-10-11T03:10:06.009Z,101638.13
2022-10-11T03:12:32.822Z,101639.28
2022-10-11T03:14:59.610Z,101650.19
2022-10-11T03:17:42.564Z,101648.16
2022-10-11T03:20:09.405Z,101648.38
2022-10-11T03:22:36.155Z,101661.16
2022-10-11T03:25:04.622Z,101664.72
2022-10-11T03:27:31.715Z,101662.44
2022-10-11T03:29:58.851Z,101657.16
2022-10-11T03:32:25.657Z,101664.81
2022-10-11T03:34:52.413Z,101668.38
2022-10-11T03:37:19.252Z,101672.22
2022-10-11T03:39:46.014Z,101672.31
2022-10-11T03:42:12.784Z,101669.38
2022-10-11T03:44:39.646Z,101674.06
2022-10-11T03:47:06.386Z,101675.34
2022-10-11T03:49:33.157Z,101675.59
2022-10-11T03:52:00.187Z,101680.06
2022-10-11T03:54:26.985Z,101682.59
2022-10-11T03:56:53.786Z,101680.13
2022-10-11T03:59:20.545Z,101677.13
2022-10-11T04:01:47.375Z,101682.16
2022-10-11T04:04:14.237Z,101694.88
2022-10-11T04:06:41.004Z,101690.81
2022-10-11T04:09:07.746Z,101705.91
2022-10-11T04:11:34.523Z,101713.31
2022-10-11T04:14:01.398Z,101701.88
2022-10-11T04:16:28.156Z,101713.22
2022-10-11T04:18:54.915Z,101712.59
2022-10-11T04:21:21.660Z,101717.94
2022-10-11T04:23:48.431Z,101724.88
2022-10-11T04:26:15.221Z,101718.91
2022-10-11T04:28:42.095Z,101727.91
2022-10-11T04:31:08.921Z,101728.69
2022-10-11T04:33:35.711Z,101728.47
2022-10-11T04:36:02.929Z,101734.25
2022-10-11T04:38:29.943Z,101736.63
2022-10-11T04:40:56.717Z,101729.03
2022-10-11T04:43:23.492Z,101739.38
2022-10-11T04:45:54.618Z,101735.47
2022-10-11T04:48:22.229Z,101738.06
2022-10-11T04:50:48.984Z,101749.66
2022-10-11T04:53:15.796Z,101748.91
2022-10-11T04:55:42.608Z,101751.28
2022-10-11T04:58:09.363Z,101754.44
2022-10-11T05:00:36.108Z,101754.97
2022-10-11T05:03:03.004Z,101756.66
2022-10-11T05:05:29.757Z,101756.69
2022-10-11T05:07:56.561Z,101764.72
2022-10-11T05:10:23.337Z,101767.34
2022-10-11T05:12:50.178Z,101772.31
2022-10-11T05:15:17.029Z,101773.81
2022-10-11T05:17:43.818Z,101777.00
2022-10-11T05:20:10.688Z,101776.97
2022-10-11T05:22:37.433Z,101771.63
2022-10-11T05:25:04.259Z,101775.06
2022-10-11T05:27:31.064Z,101777.63
2022-10-11T05:29:57.819Z,101779.53
2022-10-11T05:32:27.752Z,101785.22
2022-10-11T05:34:54.817Z,101794.16
2022-10-11T05:37:21.564Z,101795.00
2022-10-11T05:39:48.381Z,101796.81
2022-10-11T05:42:15.121Z,101801.13
2022-10-11T05:44:41.857Z,101805.28
2022-10-11T05:47:08.672Z,101814.38
2022-10-11T05:49:35.423Z,101816.91
2022-10-11T05:52:02.184Z,101814.56
2022-10-11T05:54:28.943Z,101828.16
2022-10-11T05:56:55.829Z,101827.13
2022-10-11T05:59:22.573Z,101830.38
2022-10-11T06:01:49.412Z,101834.22
2022-10-11T06:04:18.827Z,101831.16
2022-10-11T06:06:45.657Z,101833.94
2022-10-11T06:09:12.624Z,101834.84
2022-10-11T06:11:41.238Z,101833.59
2022-10-11T06:14:08.116Z,101841.50
2022-10-11T06:16:35.090Z,101843.47
2022-10-11T06:19:01.842Z,101855.94
2022-10-11T06:21:28.580Z,101854.03
2022-10-11T06:24:00.786Z,101855.75
2022-10-11T06:26:28.241Z,101867.34
2022-10-11T06:28:55.043Z,101861.50
2022-10-11T06:31:21.917Z,101858.06
2022-10-11T06:33:48.690Z,101864.19
2022-10-11T06:36:15.564Z,101869.75
2022-10-11T06:38:44.979Z,101873.59
2022-10-11T06:41:12.190Z,101870.56
2022-10-11T06:43:38.991Z,101868.50
2022-10-11T06:46:06.158Z,101866.03
2022-10-11T06:48:33.270Z,101868.19
2022-10-11T06:51:00.743Z,101874.34
2022-10-11T06:53:27.630Z,101880.53
2022-10-11T06:55:54.397Z,101883.28
2022-10-11T06:58:21.141Z,101878.78
2022-10-11T07:00:47.965Z,101888.75
2022-10-11T07:03:14.776Z,101893.75
2022-10-11T07:05:41.540Z,101894.25
2022-10-11T07:08:08.414Z,101898.78
2022-10-11T07:10:35.160Z,101897.88
2022-10-11T07:13:01.909Z,101902.91
2022-10-11T07:15:28.669Z,101905.28
2022-10-11T07:17:55.437Z,101912.69
2022-10-11T07:20:22.197Z,101918.41
2022-10-11T07:22:48.960Z,101907.75
2022-10-11T07:25:15.718Z,101916.59
2022-10-11T07:27:42.544Z,101908.34
2022-10-11T07:30:09.302Z,101917.13
2022-10-11T07:32:36.046Z,101919.56
2022-10-11T07:35:02.800Z,101921.28
2022-10-11T07:37:29.557Z,101914.69
2022-10-11T07:39:56.545Z,101922.59
2022-10-11T07:42:23.440Z,101928.59
2022-10-11T07:44:50.238Z,101929.66
2022-10-11T07:47:16.985Z,101935.88
2022-10-11T07:49:43.760Z,101931.97
2022-10-11T07:52:10.533Z,101943.31
2022-10-11T07:54:37.784Z,101939.19
2022-10-11T07:57:04.648Z,101943.78
2022-10-11T07:59:31.459Z,101942.66
2022-10-11T08:01:58.277Z,101945.75
2022-10-11T08:04:25.193Z,101942.16
2022-10-11T08:06:53.407Z,101944.19
2022-10-11T08:09:20.429Z,101949.19
2022-10-11T08:11:47.181Z,101946.41
2022-10-11T08:14:13.968Z,101944.78
2022-10-11T08:16:40.933Z,101947.41
2022-10-11T08:19:07.774Z,101953.44
2022-10-11T08:21:53.693Z,101952.69
2022-10-11T08:24:21.013Z,101951.00
2022-10-11T08:26:47.814Z,101951.22
2022-10-11T08:29:14.600Z,101965.44
2022-10-11T08:31:41.421Z,101959.84
2022-10-11T08:34:08.169Z,101964.44
2022-10-11T08:36:35.021Z,101961.72
2022-10-11T08:39:01.851Z,101963.81
2022-10-11T08:41:28.672Z,101965.22
2022-10-11T08:43:55.943Z,101964.09
2022-10-11T08:46:22.958Z,101968.63
2022-10-11T08:48:49.735Z,101976.41
2022-10-11T08:51:16.512Z,101970.66
2022-10-11T08:53:43.769Z,101968.97
2022-10-11T08:56:10.517Z,101964.28
2022-10-11T08:58:37.434Z,101968.09
2022-10-11T09:01:04.260Z,101968.63
2022-10-11T09:03:31.109Z,101974.78
2022-10-11T09:05:57.893Z,101979.38
2022-10-11T09:08:24.696Z,101989.34
2022-10-11T09:10:51.437Z,101984.44
2022-10-11T09:13:18.256Z,101980.63
2022-10-11T09:15:46.751Z,101982.16
2022-10-11T09:18:13.524Z,101982.31
2022-10-11T09:20:40.298Z,101978.06
2022-10-11T09:23:07.098Z,101981.88
2022-10-11T09:25:33.887Z,101976.84
2022-10-11T09:28:03.535Z,101982.38
2022-10-11T09:30:30.647Z,101978.84
2022-10-11T09:32:57.411Z,101984.47
2022-10-11T09:35:24.503Z,101982.44
2022-10-11T09:37:51.277Z,101977.91
2022-10-11T09:40:18.081Z,101982.44
2022-10-11T09:42:44.894Z,101986.31
2022-10-11T09:45:11.646Z,101980.94
2022-10-11T09:47:38.384Z,101984.03
2022-10-11T09:50:05.232Z,101979.91
2022-10-11T09:52:32.006Z,101979.72
2022-10-11T09:54:59.862Z,101975.94
2022-10-11T09:57:26.854Z,101975.72
2022-10-11T09:59:53.629Z,101977.69
2022-10-11T10:02:20.425Z,101979.34
2022-10-11T10:04:47.236Z,101969.78
2022-10-11T10:07:14.174Z,101986.69
2022-10-11T10:09:40.949Z,101984.47
2022-10-11T10:12:07.716Z,101982.25
2022-10-11T10:14:34.464Z,101984.34
2022-10-11T10:17:01.249Z,101981.84
2022-10-11T10:19:28.009Z,101987.63
2022-10-11T10:21:54.748Z,101985.38
2022-10-11T10:24:21.560Z,101977.88
2022-10-11T10:26:48.325Z,101982.00
2022-10-11T10:29:16.403Z,101983.16
2022-10-11T10:32:09.308Z,101979.22
2022-10-11T10:34:29.973Z,101984.97
2022-10-11T10:36:56.735Z,101986.22
2022-10-11T10:39:23.486Z,101985.13
2022-10-11T10:41:50.271Z,101985.75
2022-10-11T10:44:17.047Z,101983.03
2022-10-11T10:46:46.198Z,101975.44
2022-10-11T10:52:03.152Z,101971.34
2022-10-11T10:54:29.940Z,101971.66
2022-10-11T10:56:56.757Z,101975.31
2022-10-11T10:59:23.517Z,101964.66
2022-10-11T11:01:50.417Z,101974.00
2022-10-11T11:04:17.213Z,101971.34
2022-10-11T11:06:44.076Z,101972.56
2022-10-11T11:09:10.839Z,101967.56
2022-10-11T11:11:37.689Z,101975.16
2022-10-11T11:14:04.433Z,101972.88
2022-10-11T11:16:31.208Z,101975.78
2022-10-11T11:18:57.960Z,101976.22
2022-10-11T11:21:24.746Z,101972.94
2022-10-11T11:23:51.523Z,101976.00
2022-10-11T11:26:18.278Z,101966.31
2022-10-11T11:28:45.169Z,101968.06
2022-10-11T11:31:12.000Z,101968.50
2022-10-11T11:33:38.739Z,101967.84
2022-10-11T11:36:05.913Z,101965.59
2022-10-11T11:38:32.865Z,101967.63
2022-10-11T11:41:01.882Z,101968.22
2022-10-11T11:43:28.644Z,101966.50
2022-10-11T11:45:55.442Z,101957.75
2022-10-11T11:48:24.581Z,101966.25
2022-10-11T11:50:52.073Z,101968.94
2022-10-11T11:53:18.872Z,101955.13
2022-10-11T11:55:45.685Z,101954.28
2022-10-11T11:58:12.433Z,101959.28
2022-10-11T12:00:39.230Z,101966.97
2022-10-11T12:03:06.113Z,101956.72
2022-10-11T12:05:32.870Z,101960.69
2022-10-11T12:07:59.670Z,101955.50
2022-10-11T12:10:26.946Z,101952.34
2022-10-11T12:12:53.702Z,101947.13
2022-10-11T12:15:20.478Z,101951.41
2022-10-11T12:17:47.220Z,101948.25
2022-10-11T12:20:14.611Z,101951.97
2022-10-11T12:22:42.641Z,101954.63
2022-10-11T12:25:09.382Z,101959.19
2022-10-11T12:27:36.129Z,101953.38
2022-10-11T12:30:02.894Z,101955.00
2022-10-11T12:32:29.636Z,101947.84
2022-10-11T12:34:57.267Z,101956.00
2022-10-11T12:37:24.283Z,101945.13
2022-10-11T12:39:51.504Z,101948.34
2022-10-11T12:42:18.280Z,101944.72
2022-10-11T12:44:48.959Z,101944.53
2022-10-11T12:47:15.722Z,101942.66
2022-10-11T12:49:42.537Z,101947.75
2022-10-11T12:52:09.338Z,101951.28
2022-10-11T12:54:37.227Z,101942.50
2022-10-11T12:57:07.282Z,101945.34
2022-10-11T12:59:36.467Z,101943.88
2022-10-11T13:02:03.222Z,101936.81
2022-10-11T13:04:30.003Z,101945.13
2022-10-11T13:06:56.966Z,101940.81
2022-10-11T13:09:23.954Z,101933.38
2022-10-11T13:11:50.805Z,101928.81
2022-10-11T13:14:17.590Z,101937.84
2022-10-11T13:16:44.349Z,101933.06
2022-10-11T13:19:11.099Z,101931.16
2022-10-11T13:21:38.645Z,101940.00
2022-10-11T13:24:05.410Z,101940.31
2022-10-11T13:26:32.233Z,101942.50
2022-10-11T13:29:00.089Z,101942.94
2022-10-11T13:31:26.858Z,101946.88
2022-10-11T13:33:54.899Z,101948.88
2022-10-11T13:36:21.779Z,101939.22
2022-10-11T13:38:48.532Z,101942.69
2022-10-11T13:41:15.275Z,101936.47
2022-10-11T13:43:42.027Z,101943.88
2022-10-11T13:46:09.244Z,101941.91
2022-10-11T13:48:36.221Z,101938.22
2022-10-11T13:51:03.077Z,101938.69
2022-10-11T13:53:29.831Z,101943.25
2022-10-11T13:55:56.576Z,101944.69
2022-10-11T13:58:23.337Z,101933.16
2022-10-11T14:00:50.201Z,101941.00
2022-10-11T14:03:17.168Z,101940.88
2022-10-11T14:05:43.973Z,101936.19
2022-10-11T14:08:10.836Z,101934.09
2022-10-11T14:10:37.605Z,101930.50
2022-10-11T14:13:04.377Z,101932.81
2022-10-11T14:15:31.244Z,101936.81
2022-10-11T14:17:58.285Z,101934.31
2022-10-11T14:20:28.317Z,101940.00
2022-10-11T14:22:57.692Z,101939.75
2022-10-11T14:25:24.541Z,101937.22
2022-10-11T14:27:51.760Z,101938.19
2022-10-11T14:30:27.471Z,101934.25
2022-10-11T14:32:54.596Z,101940.50
2022-10-11T14:35:21.349Z,101936.78
2022-10-11T14:37:48.169Z,101935.91
2022-10-11T14:40:15.026Z,101937.19
2022-10-11T14:42:41.779Z,101936.00
2022-10-11T14:45:08.533Z,101936.25
2022-10-11T14:47:39.323Z,101939.25
2022-10-11T14:50:08.754Z,101944.13
2022-10-11T14:52:35.517Z,101938.84
2022-10-11T14:55:02.326Z,101932.78
2022-10-11T14:57:29.393Z,101941.78
2022-10-11T14:59:56.128Z,101939.50
2022-10-11T15:02:22.909Z,101939.06
2022-10-11T15:04:49.648Z,101936.84
2022-10-11T15:07:16.422Z,101939.97
2022-10-11T15:09:43.236Z,101932.75
2022-10-11T15:12:09.985Z,101933.09
2022-10-11T15:14:36.729Z,101936.13
2022-10-11T15:17:03.525Z,101928.34
2022-10-11T15:19:30.270Z,101934.75
2022-10-11T15:21:57.020Z,101938.16
2022-10-11T15:24:23.833Z,101934.47
2022-10-11T15:26:50.588Z,101935.94
2022-10-11T15:29:17.848Z,101930.13
2022-10-11T15:31:44.682Z,101937.38
2022-10-11T15:34:11.504Z,101934.88
2022-10-11T15:36:38.248Z,101940.03
2022-10-11T15:39:05.133Z,101938.38
2022-10-11T15:41:31.869Z,101937.72
2022-10-11T15:43:58.817Z,101938.66
2022-10-11T15:46:25.853Z,101937.13
2022-10-11T15:48:52.673Z,101935.09
2022-10-11T15:51:19.518Z,101938.63
2022-10-11T15:53:46.300Z,101931.00
2022-10-11T15:56:13.043Z,101943.47
2022-10-11T15:58:40.086Z,101940.88
2022-10-11T16:01:07.445Z,101940.00
2022-10-11T16:03:34.426Z,101935.38
2022-10-11T16:06:04.869Z,101937.47
2022-10-11T16:08:32.317Z,101941.63
2022-10-11T16:10:59.067Z,101943.91
2022-10-11T16:13:25.812Z,101934.31
2022-10-11T16:15:52.638Z,101942.09
2022-10-11T16:18:20.115Z,101940.88
2022-10-11T16:20:46.921Z,101944.22
2022-10-11T16:23:13.691Z,101946.09
2022-10-11T16:25:40.981Z,101941.81
2022-10-11T16:28:07.995Z,101944.25
2022-10-11T16:30:34.876Z,101949.53
2022-10-11T16:33:01.632Z,101955.22
2022-10-11T16:35:32.428Z,101958.56
2022-10-11T16:37:59.556Z,101960.44
2022-10-11T16:40:28.069Z,101950.41
2022-10-11T16:42:54.808Z,101959.25
2022-10-11T16:45:21.574Z,101968.72
2022-10-11T16:47:48.332Z,101956.41
2022-10-11T16:50:15.076Z,101970.22
2022-10-11T16:52:41.966Z,101967.25
2022-10-11T16:55:08.845Z,101964.69
2022-10-11T16:57:37.589Z,101971.31
2022-10-11T17:00:04.347Z,101972.53
2022-10-11T17:02:32.610Z,101974.63
2022-10-11T17:04:59.574Z,101975.38
2022-10-11T17:07:26.355Z,101977.16
2022-10-11T17:09:53.122Z,101982.84
2022-10-11T17:12:19.933Z,101973.66
2022-10-11T17:14:46.838Z,101972.91
2022-10-11T17:17:13.800Z,101973.44
2022-10-11T17:19:45.119Z,101970.88
2022-10-11T17:22:12.467Z,101980.63
2022-10-11T17:24:39.365Z,101975.66
2022-10-11T17:27:06.113Z,101980.97
2022-10-11T17:29:32.899Z,101984.59
2022-10-11T17:31:59.729Z,101981.19
2022-10-11T17:34:26.544Z,101989.84
2022-10-11T17:36:53.302Z,101991.88
2022-10-11T17:39:20.062Z,101988.03
2022-10-11T17:41:46.835Z,101986.53
2022-10-11T17:44:13.616Z,101989.34
2022-10-11T17:46:40.483Z,101990.66
2022-10-11T17:49:07.326Z,101991.00
2022-10-11T17:51:34.196Z,101987.97
2022-10-11T17:54:01.153Z,101986.03
2022-10-11T17:56:30.532Z,101989.47
2022-10-11T17:59:00.577Z,101989.88
2022-10-11T18:01:27.446Z,101984.25
2022-10-11T18:03:55.173Z,101990.59
2022-10-11T18:06:21.933Z,101981.03
2022-10-11T18:08:48.687Z,101976.75
2022-10-11T18:11:15.431Z,101979.84
2022-10-11T18:13:45.821Z,101983.53
2022-10-11T18:16:12.567Z,101989.44
2022-10-11T18:18:39.307Z,101980.22
2022-10-11T18:21:06.059Z,101982.66
2022-10-11T18:23:32.815Z,101989.03
2022-10-11T18:25:59.559Z,101985.63
2022-10-11T18:28:26.373Z,101985.22
2022-10-11T18:30:53.158Z,101984.28
2022-10-11T18:33:19.930Z,101982.81
2022-10-11T18:35:46.737Z,101971.69
2022-10-11T18:38:13.525Z,101983.66
2022-10-11T18:40:44.748Z,101976.38
2022-10-11T18:43:13.717Z,101976.72
2022-10-11T18:45:40.466Z,101979.97
2022-10-11T18:48:08.564Z,101978.44
2022-10-11T18:50:35.569Z,101977.84
2022-10-11T18:53:02.686Z,101976.69
2022-10-11T18:55:29.554Z,101973.78
2022-10-11T18:57:56.337Z,101982.19
2022-10-11T19:00:40.258Z,101980.84
2022-10-11T19:03:07.976Z,101973.44
2022-10-11T19:05:34.721Z,101976.94
2022-10-11T19:08:01.528Z,101977.00
2022-10-11T19:10:28.282Z,101975.63
2022-10-11T19:12:55.022Z,101970.34
2022-10-11T19:15:25.233Z,101975.44
2022-10-11T19:17:54.688Z,101970.34
2022-10-11T19:20:21.748Z,101976.97
2022-10-11T19:22:48.549Z,101972.25
2022-10-11T19:25:15.301Z,101966.69
2022-10-11T19:27:42.367Z,101978.31
2022-10-11T19:30:09.133Z,101975.16
2022-10-11T19:32:36.309Z,101973.47
2022-10-11T19:35:03.050Z,101976.03
2022-10-11T19:37:30.160Z,101967.44
2022-10-11T19:39:57.101Z,101958.41
2022-10-11T19:42:23.853Z,101974.28
2022-10-11T19:44:50.589Z,101965.78
2022-10-11T19:47:17.348Z,101967.03
2022-10-11T19:49:44.084Z,101981.03
2022-10-11T19:52:13.162Z,101972.91
2022-10-11T19:54:39.918Z,101972.16
2022-10-11T19:57:08.645Z,101966.25
2022-10-11T19:59:35.392Z,101977.00
2022-10-11T20:02:02.252Z,101969.31
2022-10-11T20:07:17.465Z,101969.56
2022-10-11T20:09:44.215Z,101972.53
2022-10-11T20:12:10.961Z,101970.84
2022-10-11T20:14:37.729Z,101969.25
2022-10-11T20:17:04.485Z,101959.72
2022-10-11T20:19:31.920Z,101964.81
2022-10-11T20:21:58.796Z,101974.25
2022-10-11T20:24:27.324Z,101976.41
2022-10-11T20:26:54.210Z,101978.19
2022-10-11T20:29:20.974Z,101973.44
2022-10-11T20:31:47.726Z,101973.00
2022-10-11T20:34:14.583Z,101977.63
2022-10-11T20:36:42.988Z,101977.97
2022-10-11T20:39:13.758Z,101967.69
2022-10-11T20:41:40.533Z,101973.59
2022-10-11T20:44:07.345Z,101978.47
2022-10-11T20:46:34.210Z,101984.97
2022-10-11T20:49:02.146Z,101986.06
2022-10-11T20:51:29.188Z,101981.91
2022-10-11T20:53:56.374Z,101983.28
2022-10-11T20:56:23.156Z,101981.97
2022-10-11T20:58:49.925Z,101978.97
2022-10-11T21:01:16.757Z,101981.91
2022-10-11T21:03:43.516Z,101982.88
2022-10-11T21:06:10.259Z,101988.88
2022-10-11T21:08:37.104Z,101985.88
2022-10-11T21:11:03.852Z,101976.81
2022-10-11T21:13:30.651Z,101977.63
2022-10-11T21:15:57.430Z,101970.47
2022-10-11T21:18:24.196Z,101982.13
2022-10-11T21:20:51.065Z,101981.84
2022-10-11T21:23:18.870Z,101975.44
2022-10-11T21:25:45.685Z,101985.78
2022-10-11T21:28:12.478Z,101984.06
2022-10-11T21:30:39.238Z,101988.00
2022-10-11T21:33:05.980Z,101990.16
2022-10-11T21:35:32.742Z,101991.59
2022-10-11T21:37:59.557Z,101984.72
2022-10-11T21:40:26.679Z,101981.84
2022-10-11T21:42:53.605Z,101983.19
2022-10-11T21:45:20.381Z,101981.84
2022-10-11T21:47:47.189Z,101980.13
2022-10-11T21:50:14.010Z,101991.28
2022-10-11T21:52:40.781Z,101978.06
2022-10-11T21:55:07.531Z,101974.59
2022-10-11T21:57:34.381Z,101972.94
2022-10-11T22:00:01.122Z,101977.63
2022-10-11T22:02:27.867Z,101982.44
2022-10-11T22:04:54.638Z,101989.91
2022-10-11T22:07:21.391Z,101986.94
2022-10-11T22:09:48.232Z,101990.03
2022-10-11T22:12:15.166Z,101986.28
2022-10-11T22:14:41.943Z,101985.19
2022-10-11T22:17:08.715Z,101989.03
2022-10-11T22:19:35.605Z,101991.25
2022-10-11T22:22:02.349Z,101991.28
2022-10-11T22:24:29.358Z,101988.53
2022-10-11T22:26:56.185Z,101986.44
2022-10-11T22:29:22.916Z,101989.34
2022-10-11T22:31:49.678Z,101990.25
2022-10-11T22:34:16.488Z,101994.94
2022-10-11T22:36:43.262Z,101983.38
2022-10-11T22:39:11.223Z,101986.22
2022-10-11T22:41:38.049Z,101982.06
2022-10-11T22:44:04.793Z,101986.41
2022-10-11T22:46:31.581Z,101982.03
2022-10-11T22:48:58.376Z,101975.00
2022-10-11T22:51:25.116Z,101987.75
2022-10-11T22:53:51.860Z,101985.63
2022-10-11T22:56:18.848Z,101989.84
2022-10-11T22:58:45.685Z,101990.19
2022-10-11T23:01:12.597Z,101984.88
2022-10-11T23:03:39.468Z,101986.84
2022-10-11T23:06:06.254Z,101987.63
2022-10-11T23:08:33.000Z,101989.94
2022-10-11T23:10:59.825Z,101994.44
2022-10-11T23:13:26.566Z,101996.53
2022-10-11T23:15:53.440Z,101982.13
2022-10-11T23:18:20.260Z,101988.56
2022-10-11T23:20:47.014Z,101983.22
2022-10-11T23:23:13.753Z,101988.56
2022-10-11T23:25:40.549Z,101994.63
2022-10-11T23:28:07.281Z,101994.53
2022-10-11T23:30:34.056Z,102002.28
2022-10-11T23:33:00.868Z,101994.13
2022-10-11T23:35:27.645Z,101991.78
2022-10-11T23:37:54.780Z,101995.03
2022-10-11T23:40:21.578Z,101990.63
2022-10-11T23:42:48.343Z,101991.72
2022-10-11T23:45:15.085Z,101989.56
2022-10-11T23:47:41.857Z,101988.94
2022-10-11T23:50:08.779Z,101990.66
2022-10-11T23:52:35.515Z,101998.66
2022-10-11T23:55:02.267Z,101997.16
2022-10-11T23:57:29.035Z,101997.75
2022-10-11T23:59:55.794Z,101994.31
